GVNP

Praia International Airport

Praia, Cape Verde
METAR GVNP 182100Z 03013KT 9999 SCT018 SCT100 26/21 Q1014 NOSIG
Observed Flight Rules
Aug-18 @ 21:00 UTC (55 minutes ago) Visual Flight Rules
Wind Visibility Clouds
30° at 13 knots 10,000+ meters
  • Scattered at 1,800' AGL
  • Scattered at 10,000' AGL
Temperatures Readings
Current 26°C / 79°F
Dewpoint 21°C / 70°F
Humidity 74%
Altimeter 29.94" Hg
Pressure 1014 hPa
Elevation 70
METAR GVNP 182100Z 03013KT 9999 SCT018 SCT100 26/21 Q1014 NOSIG
Observed Flight Rules
Aug-18 @ 21:00 UTC
(55 minutes ago)
VFR
Wind Visibility
30° at 13 knots 10,000+ meters
Clouds
  • Scattered at 1,800' AGL
  • Scattered at 10,000' AGL
Temperature Dewpoint
26°C / 79°F 21°C / 70°F
Humidity Altimeter Pressure
74% 29.94" Hg 1014 hPa